createdAt,value
2019-01-18T00:01:44.621Z,1.70
2019-01-18T00:04:15.094Z,1.62
2019-01-18T00:06:45.514Z,1.63
2019-01-18T00:09:15.565Z,1.95
2019-01-18T00:11:45.828Z,1.67
2019-01-18T00:14:15.996Z,1.77
2019-01-18T00:16:46.250Z,1.80
2019-01-18T00:19:16.747Z,1.57
2019-01-18T00:21:47.040Z,1.17
2019-01-18T00:24:17.639Z,1.35
2019-01-18T00:26:47.956Z,1.60
2019-01-18T00:29:18.143Z,1.65
2019-01-18T00:31:48.310Z,1.67
2019-01-18T00:34:18.765Z,0.98
2019-01-18T00:36:49.049Z,1.17
2019-01-18T00:39:19.871Z,1.35
2019-01-18T00:41:50.453Z,1.33
2019-01-18T00:44:21.024Z,1.50
2019-01-18T00:46:51.401Z,1.50
2019-01-18T00:49:22.026Z,1.15
2019-01-18T00:51:52.670Z,1.47
2019-01-18T00:54:23.518Z,2.33
2019-01-18T00:56:54.659Z,1.32
2019-01-18T00:59:25.402Z,1.12
2019-01-18T01:01:56.061Z,1.87
2019-01-18T01:04:26.373Z,1.67
2019-01-18T01:06:56.804Z,1.37
2019-01-18T01:09:27.140Z,1.32
2019-01-18T01:11:57.579Z,1.30
2019-01-18T01:14:28.222Z,1.30
2019-01-18T01:16:58.845Z,1.50
2019-01-18T01:19:29.132Z,1.10
2019-01-18T01:22:00.179Z,1.37
2019-01-18T01:24:30.770Z,1.75
2019-01-18T01:27:01.284Z,1.27
2019-01-18T01:29:31.975Z,1.00
2019-01-18T01:32:02.568Z,1.57
2019-01-18T01:34:33.471Z,1.30
2019-01-18T01:37:03.713Z,1.30
2019-01-18T01:39:34.006Z,1.22
2019-01-18T01:42:04.642Z,1.10
2019-01-18T01:44:35.483Z,1.32
2019-01-18T01:47:06.150Z,1.42
2019-01-18T01:49:37.062Z,1.62
2019-01-18T01:52:07.294Z,1.60
2019-01-18T01:54:38.517Z,1.47
2019-01-18T01:57:09.418Z,1.20
2019-01-18T01:59:40.661Z,1.55
2019-01-18T02:02:11.397Z,1.40
2019-01-18T02:04:41.797Z,1.52
2019-01-18T02:07:12.326Z,1.20
2019-01-18T02:09:42.640Z,1.35
2019-01-18T02:12:12.819Z,1.60
2019-01-18T02:14:43.845Z,1.20
2019-01-18T02:17:14.404Z,1.47
2019-01-18T02:19:44.979Z,1.30
2019-01-18T02:22:15.033Z,1.27
2019-01-18T02:24:45.560Z,1.60
2019-01-18T02:27:15.899Z,1.30
2019-01-18T02:29:46.143Z,1.60
2019-01-18T02:32:16.731Z,1.37
2019-01-18T02:34:47.440Z,1.50
2019-01-18T02:37:17.581Z,1.77
2019-01-18T02:39:47.953Z,1.62
2019-01-18T02:42:18.125Z,1.50
2019-01-18T02:44:48.041Z,1.17
2019-01-18T02:47:18.251Z,1.60
2019-01-18T02:49:48.520Z,1.47
2019-01-18T02:52:18.649Z,1.70
2019-01-18T02:54:48.920Z,1.40
2019-01-18T02:57:19.430Z,1.60
2019-01-18T02:59:50.356Z,1.75
2019-01-18T03:02:21.130Z,1.70
2019-01-18T03:04:51.705Z,1.40
2019-01-18T03:07:22.206Z,1.40
2019-01-18T03:09:52.650Z,1.80
2019-01-18T03:12:22.972Z,1.50
2019-01-18T03:14:52.977Z,1.90
2019-01-18T03:17:23.197Z,1.62
2019-01-18T03:19:53.623Z,1.40
2019-01-18T03:22:24.128Z,1.55
2019-01-18T03:24:54.577Z,1.98
2019-01-18T03:27:25.536Z,1.97
2019-01-18T03:29:56.662Z,1.50
2019-01-18T03:32:27.849Z,1.70
2019-01-18T03:34:58.639Z,1.52
2019-01-18T03:37:29.703Z,1.67
2019-01-18T03:40:00.248Z,1.50
2019-01-18T03:42:30.718Z,2.00
2019-01-18T03:45:01.143Z,1.32
2019-01-18T03:47:31.554Z,1.53
2019-01-18T03:50:02.347Z,1.57
2019-01-18T03:52:33.117Z,1.60
2019-01-18T03:55:04.072Z,1.62
2019-01-18T03:57:34.371Z,2.05
2019-01-18T04:00:13.740Z,1.75
2019-01-18T04:02:44.435Z,1.52
2019-01-18T04:05:15.502Z,1.87
2019-01-18T04:07:46.466Z,1.77
2019-01-18T04:10:19.380Z,1.87
2019-01-18T04:12:50.023Z,1.60
2019-01-18T04:15:22.431Z,1.85
2019-01-18T04:17:54.576Z,2.22
2019-01-18T04:20:25.298Z,1.67
2019-01-18T04:22:55.676Z,1.92
2019-01-18T04:25:27.426Z,2.10
2019-01-18T04:27:57.717Z,2.20
2019-01-18T04:30:33.347Z,2.60
2019-01-18T04:32:59.755Z,2.58
2019-01-18T04:35:30.322Z,2.55
2019-01-18T04:38:00.451Z,2.33
2019-01-18T04:40:30.329Z,1.57
2019-01-18T04:43:00.336Z,1.60
2019-01-18T04:45:30.586Z,1.72
2019-01-18T04:48:00.852Z,1.50
2019-01-18T04:50:30.985Z,1.52
2019-01-18T04:53:01.505Z,1.35
2019-01-18T04:55:31.740Z,1.90
2019-01-18T04:58:01.754Z,1.57
2019-01-18T05:00:32.256Z,1.83
2019-01-18T05:03:03.308Z,1.37
2019-01-18T05:05:33.713Z,1.77
2019-01-18T05:08:04.027Z,1.47
2019-01-18T05:10:34.246Z,1.50
2019-01-18T05:13:04.592Z,1.55
2019-01-18T05:15:34.552Z,1.87
2019-01-18T05:18:04.798Z,1.60
2019-01-18T05:20:35.061Z,2.20
2019-01-18T05:23:05.435Z,2.08
2019-01-18T05:25:35.552Z,1.77
2019-01-18T05:28:06.347Z,2.33
2019-01-18T05:30:36.810Z,1.80
2019-01-18T05:33:07.292Z,1.70
2019-01-18T05:35:37.321Z,1.63
2019-01-18T05:38:07.727Z,1.77
2019-01-18T05:40:37.870Z,1.67
2019-01-18T05:43:08.183Z,1.40
2019-01-18T05:45:38.491Z,1.60
2019-01-18T05:48:08.534Z,1.40
2019-01-18T05:50:38.587Z,1.80
2019-01-18T05:53:09.784Z,1.52
2019-01-18T05:55:40.026Z,1.40
2019-01-18T05:58:10.322Z,1.62
2019-01-18T06:00:55.153Z,2.10
2019-01-18T06:03:23.043Z,1.67
2019-01-18T06:05:53.023Z,1.53
2019-01-18T06:08:23.071Z,1.85
2019-01-18T06:10:53.158Z,1.57
2019-01-18T06:13:23.417Z,1.82
2019-01-18T06:15:53.524Z,1.77
2019-01-18T06:18:23.399Z,1.60
2019-01-18T06:20:53.495Z,1.80
2019-01-18T06:23:23.699Z,1.65
2019-01-18T06:25:54.142Z,1.87
2019-01-18T06:28:24.052Z,1.90
2019-01-18T06:30:54.112Z,1.53
2019-01-18T06:33:24.078Z,1.50
2019-01-18T06:35:53.980Z,1.73
2019-01-18T06:38:24.021Z,1.42
2019-01-18T06:40:55.029Z,1.40
2019-01-18T06:43:25.071Z,1.60
2019-01-18T06:45:55.041Z,1.50
2019-01-18T06:48:25.964Z,1.30
2019-01-18T06:50:56.144Z,1.83
2019-01-18T06:53:26.153Z,1.65
2019-01-18T06:55:56.799Z,1.50
2019-01-18T06:58:26.756Z,1.70
2019-01-18T07:00:57.229Z,1.90
2019-01-18T07:03:27.659Z,1.95
2019-01-18T07:05:57.738Z,1.60
2019-01-18T07:08:27.986Z,1.40
2019-01-18T07:10:58.227Z,1.70
2019-01-18T07:13:28.882Z,1.62
2019-01-18T07:15:59.225Z,1.77
2019-01-18T07:18:29.562Z,1.52
2019-01-18T07:20:59.858Z,1.67
2019-01-18T07:23:29.902Z,1.55
2019-01-18T07:25:59.761Z,1.70
2019-01-18T07:28:30.000Z,1.30
2019-01-18T07:31:00.053Z,1.30
2019-01-18T07:33:30.073Z,1.02
2019-01-18T07:35:59.978Z,1.60
2019-01-18T07:38:30.081Z,1.70
2019-01-18T07:41:00.283Z,1.70
2019-01-18T07:43:30.540Z,1.55
2019-01-18T07:46:00.751Z,1.10
2019-01-18T07:48:30.911Z,1.07
2019-01-18T07:51:00.941Z,1.30
2019-01-18T07:53:31.196Z,1.40
2019-01-18T07:56:01.088Z,1.17
2019-01-18T07:58:31.300Z,1.07
2019-01-18T08:01:01.885Z,1.17
2019-01-18T08:03:32.591Z,1.37
2019-01-18T08:06:03.072Z,1.10
2019-01-18T08:08:33.709Z,1.05
2019-01-18T08:11:04.337Z,1.53
2019-01-18T08:13:34.382Z,1.45
2019-01-18T08:16:05.071Z,1.30
2019-01-18T08:18:37.084Z,1.32
2019-01-18T08:21:07.851Z,1.10
2019-01-18T08:23:38.198Z,1.25
2019-01-18T08:26:08.454Z,1.10
2019-01-18T08:28:38.607Z,1.67
2019-01-18T08:31:08.891Z,1.40
2019-01-18T08:33:39.170Z,1.17
2019-01-18T08:36:09.209Z,1.47
2019-01-18T08:38:39.866Z,1.77
2019-01-18T08:41:10.281Z,1.23
2019-01-18T08:43:40.790Z,1.60
2019-01-18T08:46:11.281Z,2.12
2019-01-18T08:48:41.482Z,2.08
2019-01-18T08:51:11.741Z,2.77
2019-01-18T08:53:41.620Z,1.80
2019-01-18T08:56:11.925Z,2.42
2019-01-18T08:58:42.213Z,2.05
2019-01-18T09:01:13.177Z,2.50
2019-01-18T09:03:43.524Z,3.17
2019-01-18T09:06:13.607Z,3.53
2019-01-18T09:08:43.798Z,2.67
2019-01-18T09:11:13.912Z,4.75
2019-01-18T09:13:43.934Z,4.67
2019-01-18T09:16:13.942Z,3.13
2019-01-18T09:18:44.130Z,2.72
2019-01-18T09:21:14.079Z,3.98
2019-01-18T09:23:44.204Z,2.92
2019-01-18T09:26:14.423Z,3.67
2019-01-18T09:28:44.455Z,3.20
2019-01-18T09:31:15.006Z,2.97
2019-01-18T09:33:44.952Z,4.95
2019-01-18T09:36:15.103Z,2.92
2019-01-18T09:38:45.116Z,6.35
2019-01-18T09:41:16.286Z,6.23
2019-01-18T09:43:46.282Z,4.53
2019-01-18T09:46:16.195Z,2.20
2019-01-18T09:48:46.217Z,3.50
2019-01-18T09:51:16.243Z,4.00
2019-01-18T09:53:46.467Z,3.35
2019-01-18T09:56:16.540Z,3.03
2019-01-18T09:58:46.630Z,3.10
2019-01-18T10:01:16.715Z,3.67
2019-01-18T10:03:47.006Z,3.08
2019-01-18T10:06:17.276Z,2.17
2019-01-18T10:08:47.497Z,2.20
2019-01-18T10:11:17.711Z,2.70
2019-01-18T10:13:47.730Z,2.10
2019-01-18T10:16:18.058Z,1.90
2019-01-18T10:18:48.894Z,2.20
2019-01-18T10:21:19.215Z,1.90
2019-01-18T10:23:49.639Z,2.42
2019-01-18T10:26:19.955Z,2.62
2019-01-18T10:28:50.192Z,4.22
2019-01-18T10:31:20.508Z,3.37
2019-01-18T10:33:50.653Z,7.58
2019-01-18T10:36:20.733Z,2.43
2019-01-18T10:38:50.976Z,3.52
2019-01-18T10:41:21.091Z,2.13
2019-01-18T10:43:51.130Z,1.95
2019-01-18T10:46:21.120Z,2.30
2019-01-18T10:48:52.363Z,2.02
2019-01-18T10:51:22.530Z,1.70
2019-01-18T10:53:52.544Z,1.60
2019-01-18T10:56:22.705Z,2.10
2019-01-18T10:58:52.953Z,2.87
2019-01-18T11:01:23.234Z,9.37
2019-01-18T11:03:53.773Z,6.13
2019-01-18T11:06:23.882Z,4.23
2019-01-18T11:08:54.037Z,12.00
2019-01-18T11:11:23.911Z,6.00
2019-01-18T11:13:53.977Z,4.30
2019-01-18T11:16:24.028Z,4.47
2019-01-18T11:18:54.292Z,2.90
2019-01-18T11:21:24.575Z,10.47
2019-01-18T11:23:54.978Z,3.67
2019-01-18T11:26:25.000Z,6.50
2019-01-18T11:28:54.907Z,7.50
2019-01-18T11:31:25.042Z,8.10
2019-01-18T11:33:55.165Z,6.30
2019-01-18T11:36:26.267Z,4.72
2019-01-18T11:38:56.761Z,3.63
2019-01-18T11:41:26.955Z,4.73
2019-01-18T11:43:56.943Z,4.03
2019-01-18T11:46:27.175Z,4.10
2019-01-18T11:48:57.606Z,2.93
2019-01-18T11:51:27.846Z,3.25
2019-01-18T11:53:58.038Z,4.07
2019-01-18T11:56:28.516Z,2.60
2019-01-18T11:58:59.177Z,2.67
2019-01-18T12:01:29.371Z,2.83
2019-01-18T12:03:59.550Z,1.70
2019-01-18T12:06:29.577Z,2.42
2019-01-18T12:08:59.600Z,2.73
2019-01-18T12:11:30.299Z,2.70
2019-01-18T12:14:00.278Z,2.60
2019-01-18T12:16:30.338Z,2.40
2019-01-18T12:19:00.312Z,2.93
2019-01-18T12:21:36.934Z,2.90
2019-01-18T12:24:02.150Z,1.90
2019-01-18T12:26:32.117Z,1.60
2019-01-18T12:29:02.466Z,2.20
2019-01-18T12:31:32.648Z,1.57
2019-01-18T12:34:02.850Z,1.77
2019-01-18T12:36:34.308Z,1.57
2019-01-18T12:39:07.635Z,1.93
2019-01-18T12:41:37.944Z,2.30
2019-01-18T12:44:08.001Z,4.20
2019-01-18T12:46:38.584Z,2.60
2019-01-18T12:49:08.584Z,2.50
2019-01-18T12:51:38.790Z,2.00
2019-01-18T12:54:08.926Z,1.83
2019-01-18T12:56:39.003Z,1.70
2019-01-18T12:59:09.064Z,1.83
2019-01-18T13:01:39.227Z,1.90
2019-01-18T13:04:09.258Z,1.80
2019-01-18T13:06:39.317Z,1.80
2019-01-18T13:09:09.483Z,1.80
2019-01-18T13:11:39.604Z,2.07
2019-01-18T13:14:09.863Z,1.70
2019-01-18T13:16:40.016Z,1.43
2019-01-18T13:19:09.962Z,1.60
2019-01-18T13:21:40.027Z,1.40
2019-01-18T13:24:09.917Z,1.37
2019-01-18T13:26:40.111Z,2.07
2019-01-18T13:29:10.676Z,2.00
2019-01-18T13:31:41.009Z,3.23
2019-01-18T13:34:11.259Z,4.17
2019-01-18T13:36:41.195Z,3.10
2019-01-18T13:39:11.345Z,2.60
2019-01-18T13:41:41.497Z,2.00
2019-01-18T13:44:11.594Z,2.20
2019-01-18T13:46:41.732Z,3.23
2019-01-18T13:49:12.106Z,2.00
2019-01-18T13:51:46.149Z,2.57
2019-01-18T13:54:14.260Z,2.27
2019-01-18T13:56:44.152Z,2.60
2019-01-18T13:59:14.088Z,2.70
2019-01-18T14:01:44.612Z,2.63
2019-01-18T14:04:14.695Z,2.10
2019-01-18T14:06:44.910Z,2.90
2019-01-18T14:09:15.301Z,2.97
2019-01-18T14:11:45.636Z,2.20
2019-01-18T14:14:16.468Z,3.67
2019-01-18T14:16:46.806Z,4.90
2019-01-18T14:19:17.472Z,5.97
2019-01-18T14:21:47.674Z,4.63
2019-01-18T14:24:17.830Z,3.17
2019-01-18T14:26:47.872Z,1.90
2019-01-18T14:29:17.940Z,2.00
2019-01-18T14:31:48.325Z,2.47
2019-01-18T14:34:18.649Z,2.60
2019-01-18T14:36:49.263Z,2.60
2019-01-18T14:39:19.851Z,3.65
2019-01-18T14:41:51.623Z,2.50
2019-01-18T14:44:22.210Z,2.37
2019-01-18T14:46:52.681Z,3.73
2019-01-18T14:49:22.829Z,3.45
2019-01-18T14:51:53.108Z,2.80
2019-01-18T14:54:23.523Z,3.10
2019-01-18T14:56:53.709Z,2.85
2019-01-18T14:59:23.978Z,2.50
2019-01-18T15:01:54.499Z,3.10
2019-01-18T15:04:24.739Z,2.92
2019-01-18T15:06:54.845Z,3.70
2019-01-18T15:09:25.135Z,3.00
2019-01-18T15:11:55.535Z,3.30
2019-01-18T15:14:26.104Z,3.50
2019-01-18T15:16:57.152Z,3.17
2019-01-18T15:19:27.569Z,3.08
2019-01-18T15:21:58.118Z,3.27
2019-01-18T15:24:29.192Z,2.80
2019-01-18T15:26:59.653Z,3.23
2019-01-18T15:29:30.135Z,3.22
2019-01-18T15:32:00.382Z,3.07
2019-01-18T15:34:31.572Z,2.75
2019-01-18T15:37:01.699Z,3.50
2019-01-18T15:39:31.929Z,4.30
2019-01-18T15:42:02.203Z,5.33
2019-01-18T15:44:32.384Z,4.22
2019-01-18T15:47:02.556Z,2.90
2019-01-18T15:49:32.663Z,3.83
2019-01-18T15:52:02.774Z,3.30
2019-01-18T15:54:33.201Z,3.10
2019-01-18T15:57:03.612Z,3.10
2019-01-18T15:59:34.012Z,3.75
2019-01-18T16:02:05.362Z,3.13
2019-01-18T16:04:35.999Z,3.30
2019-01-18T16:07:06.348Z,3.92
2019-01-18T16:09:36.473Z,3.25
2019-01-18T16:12:06.915Z,2.97
2019-01-18T16:14:37.052Z,2.70
2019-01-18T16:17:07.501Z,4.03
2019-01-18T16:19:38.036Z,4.05
2019-01-18T16:22:08.373Z,4.20
2019-01-18T16:24:38.968Z,4.15
2019-01-18T16:27:09.555Z,3.58
2019-01-18T16:29:39.897Z,3.55
2019-01-18T16:32:10.600Z,3.10
2019-01-18T16:34:40.938Z,5.35
2019-01-18T16:37:10.991Z,4.12
2019-01-18T16:39:41.319Z,4.28
2019-01-18T16:42:13.347Z,4.50
2019-01-18T16:44:43.632Z,4.40
2019-01-18T16:47:14.143Z,5.77
2019-01-18T16:49:44.615Z,6.47
2019-01-18T16:52:14.668Z,6.30
2019-01-18T16:54:45.104Z,6.72
2019-01-18T16:57:15.097Z,8.00
2019-01-18T16:59:45.277Z,7.87
2019-01-18T17:02:15.687Z,6.83
2019-01-18T17:04:45.645Z,5.90
2019-01-18T17:07:15.747Z,5.57
2019-01-18T17:09:45.765Z,8.60
2019-01-18T17:12:16.035Z,7.33
2019-01-18T17:14:46.144Z,7.15
2019-01-18T17:17:16.228Z,6.80
2019-01-18T17:19:46.303Z,8.18
2019-01-18T17:22:16.442Z,11.23
2019-01-18T17:24:46.516Z,9.68
2019-01-18T17:27:16.734Z,8.25
2019-01-18T17:29:46.754Z,5.75
2019-01-18T17:32:16.827Z,5.70
2019-01-18T17:34:47.027Z,6.42
2019-01-18T17:37:17.187Z,5.17
2019-01-18T17:39:47.395Z,6.72
2019-01-18T17:42:32.270Z,6.30
2019-01-18T17:45:13.802Z,5.55
2019-01-18T17:47:49.694Z,6.50
2019-01-18T17:50:40.706Z,5.70
2019-01-18T17:53:30.242Z,4.92
2019-01-18T17:56:15.803Z,5.70
2019-01-18T17:59:05.923Z,5.95
2019-01-18T18:01:42.013Z,6.07
2019-01-18T18:04:27.297Z,5.55
2019-01-18T18:07:22.069Z,6.63
2019-01-18T18:09:55.241Z,6.72
2019-01-18T18:12:34.113Z,6.67
2019-01-18T18:15:30.014Z,6.00
2019-01-18T18:18:09.185Z,5.45
2019-01-18T18:21:01.947Z,6.03
2019-01-18T18:23:48.009Z,6.03
2019-01-18T18:26:43.274Z,5.10
2019-01-18T18:29:19.874Z,6.50
2019-01-18T18:32:14.438Z,5.93
2019-01-18T18:35:04.636Z,5.40
2019-01-18T18:38:00.498Z,5.92
2019-01-18T18:40:33.823Z,6.83
2019-01-18T18:43:16.326Z,7.35
2019-01-18T18:46:22.947Z,7.50
2019-01-18T18:48:56.943Z,7.78
2019-01-18T18:52:02.079Z,6.97
2019-01-18T18:55:02.357Z,6.62
2019-01-18T18:57:47.598Z,7.58
2019-01-18T19:00:20.986Z,6.50
2019-01-18T19:03:06.195Z,6.72
2019-01-18T19:05:42.059Z,6.67
2019-01-18T19:08:30.053Z,6.20
2019-01-18T19:11:20.882Z,5.63
2019-01-18T19:14:15.066Z,8.25
2019-01-18T19:17:12.141Z,8.20
2019-01-18T19:20:00.258Z,8.20
2019-01-18T19:22:39.057Z,9.40
2019-01-18T19:25:31.068Z,8.25
2019-01-18T19:28:16.928Z,7.95
2019-01-18T19:31:14.427Z,7.83
2019-01-18T19:33:53.395Z,8.25
2019-01-18T19:36:29.488Z,8.20
2019-01-18T19:39:04.098Z,8.03
2019-01-18T19:41:46.318Z,7.40
2019-01-18T19:44:25.603Z,7.47
2019-01-18T19:47:10.955Z,8.17
2019-01-18T19:49:53.209Z,8.83
2019-01-18T19:52:32.288Z,8.57
2019-01-18T19:55:11.124Z,8.45
2019-01-18T19:57:44.251Z,9.93
2019-01-18T20:00:32.685Z,9.10
2019-01-18T20:03:14.489Z,9.15
2019-01-18T20:05:59.569Z,9.63
2019-01-18T20:08:32.878Z,8.93
